Time;durP1;ratioP1;P1;durP2;ratioP2;P2;SDS_P1;SDS_P2;PMS_P1;PMS_P2;Temp;Humidity;BMP_temperature;BMP_pressure;BME280_temperature;BME280_humidity;BME280_pressure;Samples;Min_cycle;Max_cycle;Signal;HPM_P1;HPM_P2
2021/01/14 03:09:45;;;;;;;10.90;10.40;;;5.30;99.90;;;;;;5583044;23;20989;-76
2021/01/14 03:12:11;;;;;;;11.33;10.83;;;5.20;99.90;;;;;;4970146;28;20472;-75
2021/01/14 03:14:37;;;;;;;11.10;10.60;;;5.20;99.90;;;;;;4972076;28;20524;-76
2021/01/14 03:17:04;;;;;;;11.90;11.40;;;5.20;99.90;;;;;;4964140;28;20464;-76
2021/01/14 03:19:30;;;;;;;12.20;11.60;;;5.10;99.90;;;;;;4952652;29;20461;-76
2021/01/14 03:22:00;;;;;;;11.60;11.00;;;5.20;99.90;;;;;;4952751;29;20457;-76
2021/01/14 03:24:26;;;;;;;12.37;11.37;;;5.10;99.90;;;;;;4952685;29;20462;-76
2021/01/14 03:26:53;;;;;;;12.43;11.83;;;5.10;99.90;;;;;;4952591;29;21096;-76
2021/01/14 03:29:19;;;;;;;11.23;10.73;;;5.10;99.90;;;;;;4952633;29;20518;-76
2021/01/14 03:31:45;;;;;;;12.20;11.60;;;5.00;99.90;;;;;;4952437;29;21279;-76
2021/01/14 03:34:11;;;;;;;12.27;11.57;;;5.00;99.90;;;;;;4953031;29;20467;-76
2021/01/14 03:36:56;;;;;;;11.63;11.13;;;4.90;99.90;;;;;;4952306;29;20458;-76
2021/01/14 03:39:23;;;;;;;14.10;13.20;;;4.80;99.90;;;;;;4952561;29;20546;-75
2021/01/14 03:41:50;;;;;;;13.50;12.80;;;4.70;99.90;;;;;;4952236;29;20512;-75
2021/01/14 03:44:16;;;;;;;14.03;13.30;;;4.60;99.90;;;;;;4951540;28;20454;-77
2021/01/14 03:46:46;;;;;;;15.50;14.70;;;4.60;99.90;;;;;;4952237;29;20997;-76
2021/01/14 03:49:12;;;;;;;16.13;15.43;;;4.50;99.90;;;;;;4952619;29;20539;-77
2021/01/14 03:51:38;;;;;;;15.90;15.30;;;4.50;99.90;;;;;;4952746;29;20454;-75
2021/01/14 03:54:05;;;;;;;16.90;16.00;;;4.40;99.90;;;;;;4951748;29;20457;-75
2021/01/14 03:56:36;;;;;;;17.17;16.47;;;4.40;99.90;;;;;;4952281;29;20552;-74
2021/01/14 03:59:02;;;;;;;17.93;17.13;;;4.50;99.90;;;;;;4952023;29;20493;-75
2021/01/14 04:01:29;;;;;;;18.10;17.40;;;4.40;99.90;;;;;;4952095;29;20460;-76
2021/01/14 04:03:56;;;;;;;18.60;17.70;;;4.40;99.90;;;;;;4953139;29;20454;-77
2021/01/14 04:06:30;;;;;;;18.87;17.77;;;4.30;99.90;;;;;;4952207;29;20499;-75
2021/01/14 04:08:56;;;;;;;19.30;18.30;;;4.30;99.90;;;;;;4951532;28;20491;-74
2021/01/14 04:11:22;;;;;;;18.97;18.13;;;4.30;99.90;;;;;;4952016;29;20928;-75
2021/01/14 04:13:49;;;;;;;18.80;18.00;;;4.30;99.90;;;;;;4951651;29;20464;-75
2021/01/14 04:16:15;;;;;;;19.60;18.63;;;4.20;99.90;;;;;;4951731;29;20453;-75
2021/01/14 04:18:42;;;;;;;19.57;18.53;;;4.20;99.90;;;;;;4951699;29;20457;-75
2021/01/14 04:21:08;;;;;;;18.60;17.70;;;4.20;99.90;;;;;;4951866;29;20544;-76
2021/01/14 04:23:34;;;;;;;19.07;18.27;;;4.20;99.90;;;;;;4951415;29;20908;-73
2021/01/14 04:26:00;;;;;;;19.63;18.63;;;4.20;99.90;;;;;;4951314;29;20488;-75
2021/01/14 04:28:26;;;;;;;19.80;18.67;;;4.20;99.90;;;;;;4951694;29;20459;-74
2021/01/14 04:30:53;;;;;;;19.87;18.67;;;4.10;99.90;;;;;;4951550;29;20497;-75
2021/01/14 04:33:19;;;;;;;20.57;19.47;;;4.20;99.90;;;;;;4951649;29;21172;-75
2021/01/14 04:35:47;;;;;;;22.80;21.50;;;4.10;99.90;;;;;;4951684;29;20452;-75
2021/01/14 04:38:14;;;;;;;22.00;20.90;;;4.10;99.90;;;;;;4951402;29;20452;-75
2021/01/14 04:40:40;;;;;;;22.10;21.13;;;4.20;99.90;;;;;;4951544;29;20471;-75
2021/01/14 04:43:09;;;;;;;23.27;22.07;;;4.10;99.90;;;;;;4951483;29;20456;-76
2021/01/14 04:45:35;;;;;;;22.50;21.40;;;4.00;99.90;;;;;;4951310;29;20541;-76
2021/01/14 04:48:02;;;;;;;22.03;21.13;;;4.00;99.90;;;;;;4951375;29;20471;-75
2021/01/14 04:50:29;;;;;;;23.63;22.00;;;4.00;99.90;;;;;;4951280;29;20455;-75
2021/01/14 04:52:56;;;;;;;23.23;22.13;;;4.00;99.90;;;;;;4951476;29;20456;-76
2021/01/14 04:55:26;;;;;;;22.93;21.83;;;4.00;99.90;;;;;;4951735;28;20508;-76
2021/01/14 04:57:53;;;;;;;23.40;22.33;;;4.10;99.90;;;;;;4955610;29;20854;-75
2021/01/14 05:00:21;;;;;;;23.37;22.27;;;4.10;99.90;;;;;;4955280;29;20501;-75
2021/01/14 05:02:57;;;;;;;24.40;23.10;;;4.10;99.90;;;;;;4955345;29;20781;-74
2021/01/14 05:05:23;;;;;;;25.70;24.10;;;4.10;99.90;;;;;;4955233;29;20551;-74
2021/01/14 05:08:03;;;;;;;23.53;22.43;;;4.10;99.90;;;;;;4954743;28;20475;-75
2021/01/14 05:10:32;;;;;;;23.57;22.27;;;4.00;99.90;;;;;;4954580;29;20845;-74
2021/01/14 05:12:58;;;;;;;24.43;23.27;;;4.00;99.90;;;;;;4955182;29;20553;-75
2021/01/14 05:15:26;;;;;;;22.60;21.60;;;3.90;99.90;;;;;;4955192;29;20445;-75
2021/01/14 05:17:52;;;;;;;24.10;22.80;;;3.90;99.90;;;;;;4955024;29;20882;-75
2021/01/14 05:20:19;;;;;;;23.77;22.77;;;3.90;99.90;;;;;;4954971;29;20587;-75
2021/01/14 05:22:48;;;;;;;23.77;22.57;;;3.90;99.90;;;;;;4954786;29;20472;-75
2021/01/14 05:25:15;;;;;;;23.00;21.90;;;3.90;99.90;;;;;;4954550;29;20964;-74
2021/01/14 05:27:41;;;;;;;23.40;22.30;;;3.90;99.90;;;;;;4955145;29;20482;-74
2021/01/14 05:30:10;;;;;;;22.33;21.27;;;3.80;99.90;;;;;;4954589;29;20539;-74
2021/01/14 05:32:37;;;;;;;23.27;21.97;;;3.80;99.90;;;;;;4954635;29;20460;-74
2021/01/14 05:35:06;;;;;;;25.53;23.87;;;3.80;99.90;;;;;;4954343;29;20535;-73
2021/01/14 05:37:35;;;;;;;25.33;23.77;;;3.80;99.90;;;;;;4954537;29;20850;-75
2021/01/14 05:40:02;;;;;;;24.87;23.13;;;3.80;99.90;;;;;;4954019;29;20461;-75
2021/01/14 05:42:30;;;;;;;25.27;23.93;;;3.80;99.90;;;;;;4954410;29;20460;-75
2021/01/14 05:44:56;;;;;;;24.90;23.47;;;3.80;99.90;;;;;;4954476;29;20458;-75
2021/01/14 05:47:24;;;;;;;26.13;24.33;;;3.80;99.90;;;;;;4954709;29;20536;-74
2021/01/14 05:49:58;;;;;;;26.30;24.70;;;3.80;99.90;;;;;;4954308;29;20454;-75
2021/01/14 05:52:25;;;;;;;27.00;25.40;;;3.60;99.90;;;;;;4954435;29;20448;-75
2021/01/14 05:55:07;;;;;;;29.03;27.30;;;3.70;99.90;;;;;;4954263;29;20510;-75
2021/01/14 05:57:38;;;;;;;25.23;24.03;;;3.70;99.90;;;;;;4954250;29;20453;-75
2021/01/14 06:00:09;;;;;;;26.17;24.57;;;3.70;99.90;;;;;;4954189;29;20509;-75
2021/01/14 06:02:35;;;;;;;24.57;23.30;;;3.70;99.90;;;;;;4954166;29;20463;-75
2021/01/14 06:05:02;;;;;;;27.13;25.50;;;3.60;99.90;;;;;;4953928;29;20456;-75
2021/01/14 06:07:40;;;;;;;26.03;24.73;;;3.70;99.90;;;;;;4953042;28;20958;-76
2021/01/14 06:10:09;;;;;;;28.43;26.20;;;3.70;99.90;;;;;;4953681;29;20484;-76
2021/01/14 06:12:47;;;;;;;26.97;25.40;;;3.70;99.90;;;;;;4953868;29;20507;-75
2021/01/14 06:15:16;;;;;;;26.00;24.40;;;3.60;99.90;;;;;;4953913;29;20888;-75
2021/01/14 06:17:44;;;;;;;25.83;23.97;;;3.70;99.90;;;;;;4953741;29;20455;-76
2021/01/14 06:20:10;;;;;;;26.17;24.43;;;3.70;99.90;;;;;;4953995;29;20453;-77
2021/01/14 06:22:37;;;;;;;29.67;24.13;;;3.80;99.90;;;;;;4954015;29;20494;-77
2021/01/14 06:25:05;;;;;;;27.90;25.60;;;3.80;99.90;;;;;;4953666;29;20533;-76
2021/01/14 06:27:32;;;;;;;28.23;26.10;;;3.90;99.90;;;;;;4953873;29;20670;-77
2021/01/14 06:30:03;;;;;;;26.03;24.47;;;3.90;99.90;;;;;;4953536;29;20961;-76
2021/01/14 06:32:29;;;;;;;25.33;23.23;;;3.90;99.90;;;;;;4953523;29;20453;-77
2021/01/14 06:34:55;;;;;;;26.00;24.37;;;3.90;99.90;;;;;;4954041;29;20461;-77
2021/01/14 06:37:23;;;;;;;25.90;24.47;;;3.80;99.90;;;;;;4953614;29;20467;-78
2021/01/14 06:39:51;;;;;;;25.97;24.43;;;3.90;99.90;;;;;;4953339;29;20460;-78
2021/01/14 06:42:23;;;;;;;25.17;23.73;;;3.90;99.90;;;;;;4953310;29;20471;-77
2021/01/14 06:44:56;;;;;;;25.97;24.33;;;3.90;99.90;;;;;;4953574;29;20449;-77
2021/01/14 06:47:34;;;;;;;25.30;23.77;;;3.80;99.90;;;;;;4953733;29;20492;-77
2021/01/14 06:50:25;;;;;;;23.67;22.40;;;3.80;99.90;;;;;;4953432;29;20452;-77
2021/01/14 06:52:54;;;;;;;21.80;20.70;;;3.70;99.90;;;;;;4953167;29;20453;-77
2021/01/14 06:55:22;;;;;;;25.73;24.00;;;3.70;99.90;;;;;;4953149;29;20454;-76
2021/01/14 06:58:06;;;;;;;23.50;22.13;;;3.80;99.90;;;;;;4953348;29;20525;-76
2021/01/14 07:00:35;;;;;;;24.00;22.60;;;3.70;99.90;;;;;;4951916;29;20833;-75
2021/01/14 07:03:18;;;;;;;22.80;21.30;;;3.70;99.90;;;;;;4953004;29;20460;-75
2021/01/14 07:06:04;;;;;;;23.33;21.50;;;3.70;99.90;;;;;;4953259;29;20521;-76
2021/01/14 07:08:33;;;;;;;23.73;22.43;;;3.60;99.90;;;;;;4952847;28;20470;-76
2021/01/14 07:11:11;;;;;;;23.80;22.60;;;3.60;99.90;;;;;;4952452;29;21056;-78
2021/01/14 07:13:39;;;;;;;21.73;20.63;;;3.70;99.90;;;;;;4952987;29;20966;-78
2021/01/14 07:16:06;;;;;;;22.23;20.83;;;3.60;99.90;;;;;;4952889;29;20463;-79
2021/01/14 07:18:34;;;;;;;22.40;20.80;;;3.70;99.90;;;;;;4952637;28;20508;-77
2021/01/14 07:21:11;;;;;;;20.90;19.77;;;3.70;99.90;;;;;;4952744;29;20447;-78
2021/01/14 07:23:46;;;;;;;22.00;20.80;;;3.60;99.90;;;;;;4953082;29;20485;-77
2021/01/14 07:26:13;;;;;;;22.07;20.97;;;3.70;99.90;;;;;;4952763;29;20553;-77
2021/01/14 07:28:39;;;;;;;21.40;20.30;;;3.70;99.90;;;;;;4953234;29;20467;-77
2021/01/14 07:31:19;;;;;;;21.37;20.13;;;3.70;99.90;;;;;;4952303;29;20459;-76
2021/01/14 07:33:46;;;;;;;22.70;21.30;;;3.70;99.90;;;;;;4952429;29;21020;-79
2021/01/14 07:36:23;;;;;;;22.80;21.43;;;3.70;99.90;;;;;;4952517;29;20541;-77
2021/01/14 07:38:52;;;;;;;24.43;22.53;;;3.80;99.90;;;;;;4952150;29;20456;-77
2021/01/14 07:41:18;;;;;;;23.33;21.93;;;3.80;99.90;;;;;;4952458;29;20452;-76
2021/01/14 07:43:45;;;;;;;20.53;19.13;;;3.80;99.90;;;;;;4952178;29;20836;-77
2021/01/14 07:46:13;;;;;;;22.73;21.43;;;3.80;99.90;;;;;;4952398;29;20492;-78
2021/01/14 07:48:40;;;;;;;22.03;20.30;;;3.80;99.90;;;;;;4952492;29;20546;-79
2021/01/14 07:51:07;;;;;;;22.37;20.67;;;3.80;99.90;;;;;;4952152;29;20895;-80
2021/01/14 07:53:34;;;;;;;21.93;20.53;;;3.80;99.90;;;;;;4952208;29;20453;-77
2021/01/14 07:56:25;;;;;;;21.77;20.33;;;3.70;99.90;;;;;;4952137;29;20460;-77
2021/01/14 07:58:55;;;;;;;22.40;20.90;;;3.80;99.90;;;;;;4952001;29;20460;-75
2021/01/14 08:01:22;;;;;;;21.47;19.97;;;3.80;99.90;;;;;;4951724;29;20444;-75
2021/01/14 08:03:49;;;;;;;21.90;20.03;;;3.80;99.90;;;;;;4952094;29;20889;-76
2021/01/14 08:06:26;;;;;;;21.63;19.70;;;3.90;99.90;;;;;;4952188;29;20552;-77
2021/01/14 08:08:58;;;;;;;19.17;18.00;;;3.90;99.90;;;;;;4951842;28;21079;-76
2021/01/14 08:11:25;;;;;;;21.10;19.47;;;4.00;99.90;;;;;;4952196;29;20455;-76
2021/01/14 08:14:08;;;;;;;21.63;20.33;;;4.00;99.90;;;;;;4952099;29;20454;-77
2021/01/14 08:16:39;;;;;;;19.70;18.37;;;4.00;99.90;;;;;;4952098;29;20530;-77
2021/01/14 08:19:11;;;;;;;20.50;19.00;;;3.90;99.90;;;;;;4951868;29;20451;-78
2021/01/14 08:21:38;;;;;;;20.43;19.10;;;4.00;99.90;;;;;;4951926;29;20981;-77
2021/01/14 08:24:05;;;;;;;20.90;19.40;;;4.00;99.90;;;;;;4951574;29;20456;-77
2021/01/14 08:26:46;;;;;;;21.07;19.50;;;4.10;99.90;;;;;;4951516;29;21065;-75
2021/01/14 08:29:28;;;;;;;20.20;18.70;;;4.00;99.90;;;;;;4951271;29;20503;-75
2021/01/14 08:31:54;;;;;;;20.40;19.10;;;4.10;99.90;;;;;;4951469;28;20458;-76
2021/01/14 08:34:22;;;;;;;17.83;16.83;;;4.10;99.90;;;;;;4951275;29;20479;-76
2021/01/14 08:36:50;;;;;;;20.80;19.30;;;4.00;99.90;;;;;;4951520;29;20683;-76
2021/01/14 08:39:20;;;;;;;21.27;19.10;;;4.00;99.90;;;;;;4951733;29;20462;-75
2021/01/14 08:41:48;;;;;;;18.97;17.77;;;4.10;99.90;;;;;;4951412;29;20800;-77
2021/01/14 08:44:15;;;;;;;19.10;17.60;;;4.20;99.90;;;;;;4951553;29;20456;-75
2021/01/14 08:46:43;;;;;;;20.63;19.33;;;4.20;99.90;;;;;;4951629;29;20492;-75
2021/01/14 08:49:13;;;;;;;19.43;18.17;;;4.30;99.90;;;;;;4951426;29;20464;-76
2021/01/14 08:51:40;;;;;;;20.70;19.20;;;4.30;99.90;;;;;;4951996;29;20468;-79
2021/01/14 08:54:07;;;;;;;19.47;17.97;;;4.30;99.90;;;;;;4951324;29;20830;-79
2021/01/14 08:56:34;;;;;;;19.10;17.80;;;4.30;99.90;;;;;;4951289;29;20588;-78
2021/01/14 08:59:10;;;;;;;18.17;16.50;;;4.30;99.90;;;;;;4951141;29;20449;-78
2021/01/14 09:01:36;;;;;;;17.43;16.00;;;4.20;99.90;;;;;;4950574;28;20456;-78
2021/01/14 09:04:04;;;;;;;18.20;17.00;;;4.00;99.90;;;;;;4959070;28;20455;-79
2021/01/14 09:06:33;;;;;;;17.10;16.00;;;4.00;99.90;;;;;;4964774;28;21015;-79
2021/01/14 09:08:59;;;;;;;19.43;17.80;;;4.00;99.90;;;;;;4950952;29;20908;-80
2021/01/14 09:11:27;;;;;;;18.13;16.73;;;4.00;99.90;;;;;;4962018;28;20483;-80
2021/01/14 09:14:04;;;;;;;18.37;17.10;;;4.10;99.90;;;;;;4970525;28;20942;-79
2021/01/14 09:16:30;;;;;;;18.80;17.50;;;4.20;99.90;;;;;;4970389;28;20446;-80
2021/01/14 09:18:57;;;;;;;17.47;16.30;;;4.30;99.90;;;;;;4968668;28;20531;-77
2021/01/14 09:21:23;;;;;;;17.30;16.20;;;4.20;99.90;;;;;;4971009;28;20863;-80
2021/01/14 09:23:49;;;;;;;17.33;16.33;;;4.20;99.90;;;;;;4970486;28;20511;-83
2021/01/14 09:27:01;;;;;;;17.40;16.20;;;4.30;99.90;;;;;;4970736;28;20544;-80
2021/01/14 09:29:30;;;;;;;18.73;17.43;;;4.30;99.90;;;;;;4962516;28;20447;-80
2021/01/14 09:31:57;;;;;;;18.30;16.60;;;4.30;99.90;;;;;;4970361;28;20957;-79
2021/01/14 09:34:23;;;;;;;19.60;17.70;;;4.30;99.90;;;;;;4970465;28;20803;-79
2021/01/14 09:36:50;;;;;;;18.80;17.50;;;4.30;99.90;;;;;;4970369;28;20447;-79
2021/01/14 09:39:17;;;;;;;18.83;17.43;;;4.30;99.90;;;;;;4970360;28;20455;-81
2021/01/14 09:41:43;;;;;;;18.70;17.40;;;4.30;99.90;;;;;;4970296;28;20446;-79
2021/01/14 09:44:12;;;;;;;17.37;16.13;;;4.50;99.90;;;;;;4973198;28;20455;-80
2021/01/14 09:46:42;;;;;;;17.87;16.63;;;4.40;99.90;;;;;;4973870;28;20849;-80
2021/01/14 09:49:11;;;;;;;19.03;17.63;;;4.30;99.90;;;;;;4973977;28;20832;-79
2021/01/14 09:51:38;;;;;;;18.50;17.20;;;4.40;99.90;;;;;;4973707;28;20522;-79
2021/01/14 09:54:06;;;;;;;18.20;16.97;;;4.50;99.90;;;;;;4973525;28;20456;-78
2021/01/14 09:56:34;;;;;;;18.73;17.30;;;4.60;99.90;;;;;;4973524;28;20485;-78
2021/01/14 09:59:07;;;;;;;19.53;17.90;;;4.60;99.90;;;;;;4973369;28;20460;-78
2021/01/14 10:01:35;;;;;;;19.87;17.63;;;4.60;99.90;;;;;;4973444;28;20511;-77
2021/01/14 10:04:13;;;;;;;17.20;15.90;;;4.50;99.90;;;;;;4973255;28;20463;-78
2021/01/14 10:06:43;;;;;;;18.97;17.47;;;4.60;99.90;;;;;;4973562;28;21014;-79
2021/01/14 10:09:11;;;;;;;18.43;17.03;;;4.60;99.90;;;;;;4973416;28;20973;-80
2021/01/14 10:11:38;;;;;;;17.60;16.27;;;4.70;99.90;;;;;;4973447;28;20539;-80
2021/01/14 10:14:05;;;;;;;17.53;16.13;;;4.80;99.90;;;;;;4973136;28;20457;-81
2021/01/14 10:16:31;;;;;;;17.77;16.57;;;4.80;99.90;;;;;;4973249;28;20457;-80
2021/01/14 10:19:15;;;;;;;15.97;14.80;;;4.90;99.90;;;;;;4973011;28;20474;-79
2021/01/14 10:21:42;;;;;;;18.30;17.00;;;5.00;99.90;;;;;;4973590;28;20470;-80
2021/01/14 10:24:18;;;;;;;17.93;16.17;;;5.10;99.90;;;;;;4973557;28;20515;-79
2021/01/14 10:26:45;;;;;;;16.80;15.60;;;5.10;99.90;;;;;;4973429;28;20494;-79
2021/01/14 10:29:11;;;;;;;18.17;16.57;;;5.10;99.90;;;;;;4973598;28;20454;-81
2021/01/14 10:31:39;;;;;;;17.40;16.10;;;5.10;99.90;;;;;;4973495;28;20513;-81
2021/01/14 10:34:07;;;;;;;16.50;15.57;;;5.10;99.90;;;;;;4973345;28;20456;-82
2021/01/14 10:36:48;;;;;;;17.07;15.40;;;4.90;99.90;;;;;;4973201;28;20454;-82
2021/01/14 10:39:17;;;;;;;18.03;16.73;;;4.90;99.90;;;;;;4973123;28;20446;-82
2021/01/14 10:41:44;;;;;;;17.23;15.60;;;4.80;99.90;;;;;;4973281;28;20458;-84
2021/01/14 10:44:10;;;;;;;17.43;16.23;;;4.70;99.90;;;;;;4973326;28;20458;-83
2021/01/14 10:46:36;;;;;;;15.30;14.20;;;4.70;99.90;;;;;;4972790;28;20492;-84
2021/01/14 10:49:13;;;;;;;17.17;15.93;;;4.80;99.90;;;;;;4972951;28;20468;-83
2021/01/14 10:51:40;;;;;;;16.07;14.73;;;5.00;99.90;;;;;;4973374;28;20450;-83
2021/01/14 10:54:08;;;;;;;15.40;13.90;;;4.90;99.90;;;;;;4972729;28;20568;-83
2021/01/14 10:56:51;;;;;;;16.80;15.50;;;4.80;99.90;;;;;;4967610;28;20495;-84
2021/01/14 10:59:23;;;;;;;15.83;14.53;;;4.80;99.90;;;;;;4969317;28;20716;-84
2021/01/14 11:02:02;;;;;;;17.30;16.00;;;4.80;99.90;;;;;;4954098;28;20485;-83
2021/01/14 11:04:29;;;;;;;17.90;16.23;;;4.70;99.90;;;;;;4959670;28;20463;-84
2021/01/14 11:06:55;;;;;;;17.30;15.40;;;4.70;99.90;;;;;;4973001;28;20498;-85
2021/01/14 11:09:22;;;;;;;16.50;15.30;;;4.70;99.90;;;;;;4972854;28;20492;-84
2021/01/14 11:11:48;;;;;;;17.50;16.20;;;4.70;99.90;;;;;;4972623;28;20468;-83
2021/01/14 11:14:15;;;;;;;16.83;15.37;;;4.90;99.90;;;;;;4956271;28;20454;-83
2021/01/14 11:16:41;;;;;;;16.93;15.80;;;4.80;99.90;;;;;;4953416;29;20460;-82
2021/01/14 11:19:08;;;;;;;16.67;15.43;;;4.80;99.90;;;;;;4953313;29;20940;-83
2021/01/14 11:21:35;;;;;;;16.73;15.50;;;4.80;99.90;;;;;;4953273;29;20456;-83
2021/01/14 11:24:02;;;;;;;17.73;16.50;;;4.80;99.90;;;;;;4952997;29;20462;-82
2021/01/14 11:26:29;;;;;;;18.43;17.10;;;4.80;99.90;;;;;;4952923;29;20557;-82
2021/01/14 11:28:56;;;;;;;16.93;15.63;;;4.70;99.90;;;;;;4953404;29;20456;-84
2021/01/14 11:31:24;;;;;;;15.33;14.23;;;4.70;99.90;;;;;;4969892;28;20461;-82
2021/01/14 11:33:51;;;;;;;15.87;14.47;;;4.80;99.90;;;;;;4972122;28;20509;-81
2021/01/14 11:36:20;;;;;;;15.67;14.33;;;4.70;99.90;;;;;;4972243;28;20482;-81
2021/01/14 11:38:47;;;;;;;15.17;13.90;;;4.80;99.90;;;;;;4972248;28;20465;-81
2021/01/14 11:41:17;;;;;;;14.30;13.40;;;4.80;99.90;;;;;;4972184;28;20461;-79
2021/01/14 11:43:44;;;;;;;17.17;13.87;;;4.80;99.90;;;;;;4972103;28;20525;-79
2021/01/14 11:46:10;;;;;;;15.53;14.13;;;4.80;99.90;;;;;;4972234;28;20514;-79
2021/01/14 11:48:37;;;;;;;15.50;14.50;;;4.90;99.90;;;;;;4972084;28;20460;-79
2021/01/14 11:51:03;;;;;;;13.80;12.83;;;4.80;99.90;;;;;;4971914;28;20468;-79
2021/01/14 11:53:29;;;;;;;14.40;13.07;;;4.90;99.90;;;;;;4971862;28;20447;-77
2021/01/14 11:55:56;;;;;;;14.00;12.87;;;5.00;99.90;;;;;;4972023;28;20454;-77
2021/01/14 11:58:22;;;;;;;13.50;12.60;;;5.10;99.90;;;;;;4972047;28;20458;-78
2021/01/14 12:00:49;;;;;;;12.67;11.90;;;5.30;99.90;;;;;;4971727;28;20464;-78
2021/01/14 12:03:15;;;;;;;14.23;13.00;;;5.30;99.90;;;;;;4971698;28;20823;-78
2021/01/14 12:05:42;;;;;;;13.43;12.23;;;5.30;99.90;;;;;;4958596;28;20475;-78
2021/01/14 12:08:08;;;;;;;13.93;13.00;;;5.40;99.90;;;;;;4971734;28;20471;-78
2021/01/14 12:10:34;;;;;;;14.10;13.20;;;5.50;99.90;;;;;;4971466;28;20490;-77
2021/01/14 12:13:00;;;;;;;15.27;14.17;;;5.40;99.90;;;;;;4971482;28;20526;-78
2021/01/14 12:15:26;;;;;;;13.70;12.77;;;5.50;99.90;;;;;;4971647;28;20470;-77
2021/01/14 12:17:53;;;;;;;15.03;14.03;;;5.60;99.90;;;;;;4971511;28;20939;-77
2021/01/14 12:20:19;;;;;;;14.10;13.10;;;5.60;99.90;;;;;;4971359;28;20863;-78
2021/01/14 12:22:46;;;;;;;14.50;13.70;;;5.40;99.90;;;;;;4971270;28;20455;-77
2021/01/14 12:25:12;;;;;;;13.90;13.03;;;5.40;99.90;;;;;;4962799;28;20499;-78
2021/01/14 12:27:40;;;;;;;14.53;13.40;;;5.20;99.90;;;;;;4955269;28;20914;-78
2021/01/14 12:30:07;;;;;;;16.00;14.87;;;5.40;99.90;;;;;;4970068;28;21015;-78
2021/01/14 12:32:33;;;;;;;12.90;12.23;;;5.50;99.90;;;;;;4971256;28;20545;-77
2021/01/14 12:35:01;;;;;;;15.03;14.00;;;5.70;99.90;;;;;;4969095;28;20466;-76
2021/01/14 12:37:31;;;;;;;15.20;14.27;;;5.60;99.90;;;;;;4971122;28;20446;-76
2021/01/14 12:39:57;;;;;;;14.63;13.50;;;5.90;99.90;;;;;;4970736;28;20457;-76
2021/01/14 12:42:24;;;;;;;13.97;12.90;;;5.90;99.90;;;;;;4969520;28;20455;-78
2021/01/14 12:44:50;;;;;;;16.03;14.83;;;6.20;99.90;;;;;;4971052;28;20461;-75
2021/01/14 12:47:16;;;;;;;15.33;14.30;;;6.30;99.90;;;;;;4970875;28;21241;-76
2021/01/14 12:49:42;;;;;;;13.90;13.00;;;6.50;99.90;;;;;;4971252;28;20988;-76
2021/01/14 12:52:09;;;;;;;13.97;13.17;;;6.30;99.90;;;;;;4971837;28;20491;-76
2021/01/14 12:54:35;;;;;;;15.37;14.47;;;6.20;99.90;;;;;;4971750;28;20474;-75
2021/01/14 12:57:01;;;;;;;14.53;13.60;;;6.30;99.90;;;;;;4971691;28;20452;-75
2021/01/14 12:59:27;;;;;;;15.43;14.43;;;6.20;99.90;;;;;;4969213;28;20530;-75
2021/01/14 13:01:54;;;;;;;13.90;13.10;;;6.40;99.90;;;;;;4956612;28;20449;-75
2021/01/14 13:04:20;;;;;;;14.53;13.30;;;6.30;99.90;;;;;;4964820;28;20448;-76
2021/01/14 13:06:46;;;;;;;14.13;13.13;;;6.20;99.90;;;;;;4971292;28;20492;-76
2021/01/14 13:09:13;;;;;;;14.30;13.00;;;6.30;99.90;;;;;;4971114;28;20499;-76
2021/01/14 13:11:40;;;;;;;13.77;12.77;;;6.20;99.90;;;;;;4971939;28;20455;-76
2021/01/14 13:14:07;;;;;;;14.77;13.80;;;6.40;99.90;;;;;;4971667;28;20461;-76
2021/01/14 13:16:35;;;;;;;14.90;13.80;;;6.30;99.90;;;;;;4969253;28;20456;-75
2021/01/14 13:19:02;;;;;;;14.80;13.27;;;6.10;99.90;;;;;;4955900;29;20457;-75
2021/01/14 13:21:35;;;;;;;14.07;13.17;;;5.90;99.90;;;;;;4955919;29;20460;-76
2021/01/14 13:24:02;;;;;;;14.33;13.47;;;5.90;99.90;;;;;;4956143;29;20671;-75
2021/01/14 13:26:29;;;;;;;14.20;13.10;;;5.90;99.90;;;;;;4955740;29;21040;-75
2021/01/14 13:28:56;;;;;;;16.37;15.00;;;5.70;99.90;;;;;;4955997;29;20460;-76
2021/01/14 13:31:22;;;;;;;14.73;13.73;;;5.60;99.90;;;;;;4955870;29;21024;-75
2021/01/14 13:33:48;;;;;;;15.20;14.00;;;5.50;99.90;;;;;;4959730;28;20444;-76
2021/01/14 13:36:14;;;;;;;13.90;12.90;;;5.70;99.90;;;;;;4974900;28;20876;-75
2021/01/14 13:38:42;;;;;;;14.57;13.50;;;5.60;99.90;;;;;;4974847;28;20461;-76
2021/01/14 13:41:08;;;;;;;13.63;12.87;;;5.40;99.90;;;;;;4974945;28;20542;-75
2021/01/14 13:43:35;;;;;;;13.27;12.47;;;5.30;99.90;;;;;;4974695;28;20463;-75
2021/01/14 13:46:02;;;;;;;16.37;15.27;;;5.20;99.90;;;;;;4974631;28;20457;-75
2021/01/14 13:48:28;;;;;;;13.87;13.17;;;5.30;99.90;;;;;;4974778;28;20481;-75
2021/01/14 13:50:54;;;;;;;12.40;11.80;;;5.40;99.90;;;;;;4974863;28;20456;-75
2021/01/14 13:53:20;;;;;;;13.23;12.40;;;5.40;99.90;;;;;;4974576;28;20454;-75
2021/01/14 13:55:47;;;;;;;13.50;12.60;;;5.40;99.90;;;;;;4974371;28;20459;-74
2021/01/14 13:58:13;;;;;;;13.97;13.07;;;5.40;99.90;;;;;;4973916;28;20466;-75
2021/01/14 14:00:44;;;;;;;12.20;11.50;;;5.50;99.90;;;;;;4973965;28;20455;-74
2021/01/14 14:03:10;;;;;;;13.60;12.57;;;5.40;99.90;;;;;;4973866;28;20761;-75
2021/01/14 14:05:36;;;;;;;14.83;13.73;;;5.40;99.90;;;;;;4973377;28;20474;-75
2021/01/14 14:08:03;;;;;;;13.90;12.80;;;5.20;99.90;;;;;;4973364;28;20489;-75
2021/01/14 14:10:30;;;;;;;15.40;14.20;;;5.20;99.90;;;;;;4973330;28;20484;-76
2021/01/14 14:12:56;;;;;;;14.73;13.80;;;5.10;99.90;;;;;;4973634;28;20489;-76
2021/01/14 14:15:23;;;;;;;14.37;13.40;;;4.90;99.90;;;;;;4973537;28;20449;-75
2021/01/14 14:17:51;;;;;;;14.27;13.30;;;4.80;99.90;;;;;;4973312;28;20447;-76
2021/01/14 14:20:18;;;;;;;13.97;13.23;;;4.70;99.90;;;;;;4973228;28;20514;-76
2021/01/14 14:22:44;;;;;;;14.57;13.70;;;4.60;99.90;;;;;;4970068;28;20949;-75
2021/01/14 14:25:10;;;;;;;15.77;14.67;;;4.60;99.90;;;;;;4959523;28;20463;-75
2021/01/14 14:27:36;;;;;;;14.53;13.63;;;4.70;99.90;;;;;;4953945;29;20498;-75
2021/01/14 14:30:04;;;;;;;14.73;13.50;;;4.90;99.90;;;;;;4953220;28;20459;-75
2021/01/14 14:32:30;;;;;;;15.17;14.23;;;4.80;99.90;;;;;;4953627;29;20459;-75
2021/01/14 14:34:57;;;;;;;12.90;12.10;;;4.90;99.90;;;;;;4953953;29;20461;-75
2021/01/14 14:37:23;;;;;;;13.60;12.17;;;4.70;99.90;;;;;;4953801;29;20449;-76
2021/01/14 14:39:49;;;;;;;14.07;12.80;;;4.70;99.90;;;;;;4953699;29;20465;-75
2021/01/14 14:42:15;;;;;;;12.63;11.83;;;4.70;99.90;;;;;;4953566;29;20459;-76
2021/01/14 14:44:42;;;;;;;13.90;12.90;;;4.60;99.90;;;;;;4953949;29;20450;-76
2021/01/14 14:47:08;;;;;;;12.13;11.33;;;4.70;99.90;;;;;;4953625;29;20494;-75
2021/01/14 14:49:35;;;;;;;12.67;11.77;;;4.60;99.90;;;;;;4953404;29;20460;-76
2021/01/14 14:52:02;;;;;;;14.37;12.97;;;4.60;99.90;;;;;;4953172;29;20456;-76
2021/01/14 14:54:28;;;;;;;11.90;11.30;;;4.60;99.90;;;;;;4953621;29;20460;-75
2021/01/14 14:56:55;;;;;;;13.17;12.33;;;4.50;99.90;;;;;;4953579;29;20503;-76
2021/01/14 14:59:21;;;;;;;11.93;11.03;;;4.30;99.90;;;;;;4952971;29;20460;-77
2021/01/14 15:01:47;;;;;;;11.87;11.07;;;4.00;99.90;;;;;;4952982;29;21006;-75
2021/01/14 15:04:15;;;;;;;11.30;10.60;;;4.00;99.90;;;;;;4953446;29;20453;-77
2021/01/14 15:06:41;;;;;;;12.20;11.50;;;3.80;99.90;;;;;;4953099;29;20983;-77
2021/01/14 15:09:08;;;;;;;11.63;11.03;;;3.70;99.90;;;;;;4952780;28;20862;-76
2021/01/14 15:11:34;;;;;;;11.70;10.90;;;3.50;99.90;;;;;;4951923;29;20460;-76
2021/01/14 15:14:01;;;;;;;11.73;11.03;;;3.40;99.90;;;;;;4952537;29;20453;-76
2021/01/14 15:16:27;;;;;;;11.03;10.43;;;3.30;99.90;;;;;;4952833;29;20446;-77
2021/01/14 15:18:53;;;;;;;10.67;10.17;;;3.30;99.90;;;;;;4953007;29;20519;-76
2021/01/14 15:21:19;;;;;;;12.33;11.73;;;3.20;99.90;;;;;;4952230;29;20464;-76
2021/01/14 15:23:46;;;;;;;11.30;10.43;;;3.10;99.90;;;;;;4952384;29;20454;-76
2021/01/14 15:26:13;;;;;;;11.30;10.70;;;3.00;99.90;;;;;;4951920;29;20459;-76
2021/01/14 15:28:39;;;;;;;12.53;11.63;;;3.00;99.90;;;;;;4952928;29;20449;-76
2021/01/14 15:31:05;;;;;;;11.30;10.53;;;3.00;99.90;;;;;;4952332;29;20512;-76
2021/01/14 15:33:32;;;;;;;11.63;11.00;;;3.00;99.90;;;;;;4952276;29;20748;-75
2021/01/14 15:35:58;;;;;;;11.67;11.07;;;3.00;99.90;;;;;;4952265;29;20456;-76
2021/01/14 15:38:24;;;;;;;12.00;11.40;;;3.10;99.90;;;;;;4951861;29;20512;-76
2021/01/14 15:40:51;;;;;;;11.40;10.90;;;3.00;99.90;;;;;;4951153;28;20958;-76
2021/01/14 15:43:18;;;;;;;11.53;10.40;;;2.90;99.90;;;;;;4951865;29;20457;-76
2021/01/14 15:45:45;;;;;;;10.83;10.33;;;2.90;99.90;;;;;;4952043;29;21018;-76
2021/01/14 15:48:12;;;;;;;11.50;10.80;;;2.90;99.90;;;;;;4951927;29;20480;-76
2021/01/14 15:50:40;;;;;;;11.70;11.00;;;2.90;99.90;;;;;;4951892;29;20497;-76